createdAt,value
2022-12-03T00:01:25.232Z,14.23
2022-12-03T00:03:54.853Z,14.73
2022-12-03T00:06:22.566Z,15.13
2022-12-03T00:08:50.307Z,16.13
2022-12-03T00:11:17.926Z,15.47
2022-12-03T00:13:45.712Z,11.83
2022-12-03T00:16:13.399Z,14.63
2022-12-03T00:18:41.167Z,14.77
2022-12-03T00:21:10.093Z,13.93
2022-12-03T00:23:42.010Z,17.47
2022-12-03T00:26:10.122Z,14.57
2022-12-03T00:28:37.722Z,13.37
2022-12-03T00:31:05.732Z,15.57
2022-12-03T00:33:33.321Z,13.93
2022-12-03T00:36:01.085Z,15.17
2022-12-03T00:38:30.042Z,15.03
2022-12-03T00:40:57.718Z,14.70
2022-12-03T00:43:25.286Z,13.83
2022-12-03T00:45:53.084Z,14.17
2022-12-03T00:48:20.726Z,15.83
2022-12-03T00:50:49.513Z,14.13
2022-12-03T00:53:17.194Z,14.13
2022-12-03T00:55:46.291Z,16.30
2022-12-03T00:58:13.898Z,14.00
2022-12-03T01:00:41.661Z,16.50
2022-12-03T01:03:09.241Z,14.70
2022-12-03T01:05:36.981Z,15.73
2022-12-03T01:08:04.678Z,14.73
2022-12-03T01:10:32.423Z,14.47
2022-12-03T01:13:01.352Z,13.53
2022-12-03T01:15:29.089Z,13.63
2022-12-03T01:17:56.676Z,15.40
2022-12-03T01:20:24.404Z,15.23
2022-12-03T01:22:52.193Z,13.50
2022-12-03T01:25:19.983Z,14.40
2022-12-03T01:27:47.588Z,16.73
2022-12-03T01:30:18.553Z,15.63
2022-12-03T01:32:45.156Z,15.87
2022-12-03T01:35:12.916Z,16.23
2022-12-03T01:37:40.906Z,15.20
2022-12-03T01:40:09.587Z,14.33
2022-12-03T01:42:39.785Z,15.73
2022-12-03T01:45:11.834Z,16.30
2022-12-03T01:47:41.281Z,16.03
2022-12-03T01:50:12.840Z,14.53
2022-12-03T01:52:40.460Z,17.10
2022-12-03T01:55:12.411Z,14.43
2022-12-03T01:57:41.524Z,14.43
2022-12-03T02:00:13.649Z,14.37
2022-12-03T02:02:43.420Z,15.20
2022-12-03T02:05:18.730Z,15.37
2022-12-03T02:07:48.060Z,14.90
2022-12-03T02:10:17.685Z,15.17
2022-12-03T02:12:47.551Z,15.63
2022-12-03T02:15:15.275Z,15.90
2022-12-03T02:17:44.294Z,17.73
2022-12-03T02:20:12.748Z,16.47
2022-12-03T02:22:53.555Z,15.43
2022-12-03T02:25:23.548Z,14.93
2022-12-03T02:27:51.489Z,14.20
2022-12-03T02:30:21.529Z,16.90
2022-12-03T02:32:49.339Z,14.57
2022-12-03T02:35:17.287Z,17.57
2022-12-03T02:37:45.127Z,17.77
2022-12-03T02:40:14.621Z,17.00
2022-12-03T02:42:44.820Z,15.90
2022-12-03T02:45:17.678Z,16.47
2022-12-03T02:47:46.158Z,15.50
2022-12-03T02:50:16.907Z,16.90
2022-12-03T02:52:45.269Z,17.77
2022-12-03T02:55:12.872Z,14.83
2022-12-03T02:57:40.590Z,16.67
2022-12-03T03:00:10.950Z,19.07
2022-12-03T03:02:38.926Z,15.13
2022-12-03T03:05:07.774Z,17.60
2022-12-03T03:07:35.639Z,17.10
2022-12-03T03:10:03.650Z,19.83
2022-12-03T03:12:34.816Z,19.90
2022-12-03T03:15:07.670Z,14.60
2022-12-03T03:17:37.684Z,17.83
2022-12-03T03:20:06.329Z,16.97
2022-12-03T03:22:34.417Z,16.30
2022-12-03T03:25:02.100Z,15.37
2022-12-03T03:27:29.727Z,17.00
2022-12-03T03:29:57.463Z,18.83
2022-12-03T03:32:25.096Z,14.87
2022-12-03T03:34:54.448Z,17.70
2022-12-03T03:37:22.283Z,16.40
2022-12-03T03:39:50.015Z,15.03
2022-12-03T03:42:17.659Z,15.60
2022-12-03T03:44:45.366Z,14.30
2022-12-03T03:47:13.096Z,18.33
2022-12-03T03:49:40.883Z,16.60
2022-12-03T03:52:11.701Z,18.43
2022-12-03T03:54:39.503Z,19.03
2022-12-03T03:57:07.184Z,17.03
2022-12-03T03:59:34.899Z,17.37
2022-12-03T04:02:02.542Z,21.07
2022-12-03T04:04:31.758Z,19.20
2022-12-03T04:06:59.562Z,19.23
2022-12-03T04:09:28.694Z,20.33
2022-12-03T04:12:13.749Z,17.80
2022-12-03T04:14:41.343Z,17.47
2022-12-03T04:17:10.052Z,19.77
2022-12-03T04:19:37.640Z,20.03
2022-12-03T04:22:19.293Z,17.50
2022-12-03T04:24:48.250Z,19.50
2022-12-03T04:27:33.422Z,19.57
2022-12-03T04:30:01.225Z,22.07
2022-12-03T04:32:46.690Z,16.73
2022-12-03T04:35:46.957Z,21.03
2022-12-03T04:38:15.819Z,20.93
2022-12-03T04:41:04.120Z,21.43
2022-12-03T04:43:33.068Z,23.20
2022-12-03T04:46:00.804Z,22.23
2022-12-03T04:48:28.687Z,19.80
2022-12-03T04:50:56.277Z,21.30
2022-12-03T04:53:25.020Z,24.53
2022-12-03T04:55:54.007Z,21.43
2022-12-03T04:58:21.829Z,19.67
2022-12-03T05:00:49.472Z,18.77
2022-12-03T05:03:17.232Z,24.17
2022-12-03T05:05:44.868Z,21.40
2022-12-03T05:08:13.622Z,20.00
2022-12-03T05:10:41.295Z,21.83
2022-12-03T05:13:11.401Z,19.77
2022-12-03T05:15:39.006Z,24.83
2022-12-03T05:18:06.683Z,21.03
2022-12-03T05:20:42.095Z,21.23
2022-12-03T05:23:09.846Z,21.37
2022-12-03T05:25:37.545Z,21.00
2022-12-03T05:28:05.882Z,24.13
2022-12-03T05:30:35.117Z,24.50
2022-12-03T05:33:02.931Z,19.10
2022-12-03T05:35:30.597Z,20.60
2022-12-03T05:37:58.360Z,25.50
2022-12-03T05:40:26.115Z,23.77
2022-12-03T05:42:56.985Z,20.17
2022-12-03T05:45:26.204Z,24.40
2022-12-03T05:47:55.493Z,23.23
2022-12-03T05:50:23.892Z,21.80
2022-12-03T05:52:51.640Z,24.17
2022-12-03T05:55:19.687Z,25.17
2022-12-03T05:57:47.410Z,22.57
2022-12-03T06:00:16.898Z,22.00
2022-12-03T06:02:44.599Z,25.47
2022-12-03T06:05:14.232Z,22.77
2022-12-03T06:07:41.964Z,21.63
2022-12-03T06:10:11.217Z,25.70
2022-12-03T06:12:38.960Z,19.80
2022-12-03T06:15:07.990Z,20.33
2022-12-03T06:17:35.738Z,22.33
2022-12-03T06:20:03.598Z,21.57
2022-12-03T06:22:32.937Z,19.27
2022-12-03T06:25:06.206Z,20.33
2022-12-03T06:27:34.982Z,22.77
2022-12-03T06:30:02.941Z,23.17
2022-12-03T06:32:30.834Z,23.73
2022-12-03T06:34:58.623Z,21.70
2022-12-03T06:37:26.272Z,24.80
2022-12-03T06:39:55.431Z,22.10
2022-12-03T06:42:23.223Z,25.13
2022-12-03T06:44:51.417Z,23.33
2022-12-03T06:47:19.384Z,23.47
2022-12-03T06:49:47.132Z,22.63
2022-12-03T06:52:14.823Z,22.87
2022-12-03T06:54:42.518Z,23.93
2022-12-03T06:57:11.533Z,24.90
2022-12-03T06:59:39.257Z,24.17
2022-12-03T07:02:07.037Z,25.07
2022-12-03T07:04:34.941Z,20.57
2022-12-03T07:07:02.762Z,22.33
2022-12-03T07:09:31.127Z,24.60
2022-12-03T07:11:58.822Z,25.63
2022-12-03T07:14:27.870Z,26.80
2022-12-03T07:16:55.723Z,26.67
2022-12-03T07:19:27.579Z,25.10
2022-12-03T07:21:58.497Z,22.13
2022-12-03T07:24:38.422Z,21.13
2022-12-03T07:27:06.192Z,22.20
2022-12-03T07:29:35.327Z,20.30
2022-12-03T07:32:02.978Z,21.70
2022-12-03T07:34:30.804Z,21.63
2022-12-03T07:36:58.494Z,20.83
2022-12-03T07:39:26.225Z,21.30
2022-12-03T07:41:57.069Z,22.53
2022-12-03T07:44:24.884Z,21.07
2022-12-03T07:46:54.123Z,20.23
2022-12-03T07:49:21.881Z,22.57
2022-12-03T07:51:54.214Z,18.27
2022-12-03T07:54:22.173Z,20.53
2022-12-03T07:56:50.171Z,24.47
2022-12-03T07:59:18.019Z,21.97
2022-12-03T08:01:45.816Z,22.67
2022-12-03T08:04:18.222Z,23.67
2022-12-03T08:06:46.166Z,21.60
2022-12-03T08:09:16.208Z,23.80
2022-12-03T08:11:45.124Z,21.80
2022-12-03T08:14:13.646Z,28.13
2022-12-03T08:16:42.080Z,20.27
2022-12-03T08:19:10.572Z,23.03
2022-12-03T08:21:39.826Z,24.27
2022-12-03T08:24:14.253Z,21.40
2022-12-03T08:26:41.933Z,21.93
2022-12-03T08:29:10.393Z,26.50
2022-12-03T08:31:38.427Z,22.37
2022-12-03T08:34:19.793Z,21.83
2022-12-03T08:36:49.272Z,19.20
2022-12-03T08:39:30.065Z,23.07
2022-12-03T08:42:16.922Z,20.67
2022-12-03T08:44:44.541Z,22.67
2022-12-03T08:47:14.840Z,23.73
2022-12-03T08:49:42.617Z,22.93
2022-12-03T08:52:16.217Z,21.63
2022-12-03T08:54:43.881Z,20.07
2022-12-03T08:57:26.461Z,20.30
2022-12-03T08:59:55.336Z,20.00
2022-12-03T09:02:27.265Z,24.43
2022-12-03T09:04:55.152Z,23.33
2022-12-03T09:07:24.339Z,22.00
2022-12-03T09:09:52.084Z,19.53
2022-12-03T09:12:19.813Z,21.10
2022-12-03T09:14:47.583Z,21.23
2022-12-03T09:17:15.212Z,20.40
2022-12-03T09:19:46.306Z,20.77
2022-12-03T09:22:15.263Z,27.07
2022-12-03T09:24:44.684Z,20.03
2022-12-03T09:27:12.517Z,22.50
2022-12-03T09:29:40.494Z,18.73
2022-12-03T09:32:10.532Z,20.47
2022-12-03T09:34:40.309Z,22.47
2022-12-03T09:37:08.146Z,21.33
2022-12-03T09:39:35.966Z,21.03
2022-12-03T09:42:05.557Z,35.33
2022-12-03T09:44:34.139Z,23.40
2022-12-03T09:47:01.901Z,21.40
2022-12-03T09:49:29.770Z,23.43
2022-12-03T09:51:57.909Z,20.00
2022-12-03T09:54:26.791Z,22.80
2022-12-03T09:56:54.824Z,22.40
2022-12-03T09:59:24.106Z,20.67
2022-12-03T10:01:52.634Z,18.27
2022-12-03T10:04:20.391Z,20.77
2022-12-03T10:06:48.222Z,19.87
2022-12-03T10:09:17.712Z,20.57
2022-12-03T10:11:45.406Z,19.87
2022-12-03T10:14:13.391Z,21.73
2022-12-03T10:16:42.711Z,20.93
2022-12-03T10:19:10.746Z,21.23
2022-12-03T10:21:39.158Z,18.13
2022-12-03T10:24:25.465Z,21.33
2022-12-03T10:26:54.032Z,16.77
2022-12-03T10:29:24.710Z,19.90
2022-12-03T10:31:59.967Z,19.37
2022-12-03T10:34:30.670Z,16.73
2022-12-03T10:37:12.076Z,23.03
2022-12-03T10:40:00.960Z,19.57
2022-12-03T10:42:29.671Z,20.27
2022-12-03T10:45:20.959Z,21.10
2022-12-03T10:48:13.143Z,16.53
2022-12-03T10:50:48.268Z,19.03
2022-12-03T10:53:16.283Z,20.63
2022-12-03T10:55:44.832Z,19.80
2022-12-03T10:58:21.012Z,17.83
2022-12-03T11:00:49.342Z,20.17
2022-12-03T11:03:22.002Z,18.03
2022-12-03T11:05:49.860Z,18.13
2022-12-03T11:08:19.286Z,18.17
2022-12-03T11:10:47.193Z,19.10
2022-12-03T11:13:51.777Z,20.47
2022-12-03T11:17:06.956Z,17.77
2022-12-03T11:19:48.899Z,20.07
2022-12-03T11:22:45.277Z,18.77
2022-12-03T11:25:37.002Z,20.13
2022-12-03T11:28:32.137Z,22.30
2022-12-03T11:31:02.157Z,18.27
2022-12-03T11:33:30.264Z,17.40
2022-12-03T11:36:31.703Z,18.60
2022-12-03T11:39:04.358Z,20.73
2022-12-03T11:41:33.398Z,18.40
2022-12-03T11:44:32.056Z,18.43
2022-12-03T11:47:02.138Z,20.70
2022-12-03T11:49:35.769Z,20.90
2022-12-03T11:52:13.187Z,18.60
2022-12-03T11:54:40.789Z,19.57
2022-12-03T11:57:26.246Z,17.87
2022-12-03T12:00:01.165Z,17.40
2022-12-03T12:02:29.038Z,19.27
2022-12-03T12:04:57.200Z,18.77
2022-12-03T12:07:38.622Z,20.23
2022-12-03T12:10:07.307Z,18.83
2022-12-03T12:12:38.925Z,19.27
2022-12-03T12:15:34.251Z,19.67
2022-12-03T12:18:35.292Z,17.60
2022-12-03T12:21:41.017Z,19.20
2022-12-03T12:24:32.647Z,19.37
2022-12-03T12:27:01.513Z,23.67
2022-12-03T12:29:29.278Z,29.17
2022-12-03T12:32:03.610Z,20.00
2022-12-03T12:34:31.355Z,19.83
2022-12-03T12:36:59.519Z,20.37
2022-12-03T12:39:27.408Z,22.07
2022-12-03T12:41:56.519Z,19.63
2022-12-03T12:44:26.357Z,21.40
2022-12-03T12:46:54.775Z,21.23
2022-12-03T12:49:26.789Z,20.77
2022-12-03T12:51:54.950Z,21.90
2022-12-03T12:54:22.824Z,18.33
2022-12-03T12:56:50.899Z,19.53
2022-12-03T12:59:20.991Z,22.03
2022-12-03T13:01:49.480Z,20.93
2022-12-03T13:04:18.542Z,23.47
2022-12-03T13:06:46.434Z,21.90
2022-12-03T13:09:15.959Z,21.27
2022-12-03T13:11:45.861Z,22.77
2022-12-03T13:14:16.499Z,22.07
2022-12-03T13:16:46.213Z,19.53
2022-12-03T13:19:23.713Z,20.37
2022-12-03T13:21:51.954Z,20.87
2022-12-03T13:24:33.674Z,21.80
2022-12-03T13:27:06.191Z,22.60
2022-12-03T13:29:33.852Z,21.03
2022-12-03T13:32:03.588Z,21.97
2022-12-03T13:34:33.430Z,23.93
2022-12-03T13:37:01.531Z,22.47
2022-12-03T13:39:32.096Z,20.33
2022-12-03T13:42:19.798Z,21.80
2022-12-03T13:44:48.727Z,20.53
2022-12-03T13:47:20.084Z,21.67
2022-12-03T13:49:52.845Z,23.03
2022-12-03T13:52:21.952Z,23.83
2022-12-03T13:54:51.044Z,23.83
2022-12-03T13:57:18.956Z,23.77
2022-12-03T13:59:48.515Z,21.13
2022-12-03T14:02:18.705Z,20.30
2022-12-03T14:04:47.169Z,21.27
2022-12-03T14:07:20.641Z,21.87
2022-12-03T14:09:49.159Z,20.47
2022-12-03T14:12:33.684Z,19.53
2022-12-03T14:15:01.665Z,22.73
2022-12-03T14:17:30.984Z,23.00
2022-12-03T14:20:00.726Z,25.63
2022-12-03T14:22:28.838Z,25.93
2022-12-03T14:24:57.032Z,23.23
2022-12-03T14:27:25.604Z,22.17
2022-12-03T14:29:54.071Z,25.53
2022-12-03T14:32:23.522Z,24.20
2022-12-03T14:34:53.340Z,23.30
2022-12-03T14:37:21.904Z,22.80
2022-12-03T14:39:53.293Z,23.47
2022-12-03T14:42:21.161Z,20.70
2022-12-03T14:44:50.219Z,23.53
2022-12-03T14:47:22.457Z,23.47
2022-12-03T14:49:52.612Z,25.47
2022-12-03T14:52:20.998Z,25.53
2022-12-03T14:54:49.096Z,22.37
2022-12-03T14:57:17.302Z,24.80
2022-12-03T14:59:46.979Z,21.37
2022-12-03T15:02:15.046Z,21.43
2022-12-03T15:04:45.509Z,23.30
2022-12-03T15:07:14.900Z,22.17
2022-12-03T15:09:45.569Z,24.20
2022-12-03T15:12:13.376Z,23.10
2022-12-03T15:14:41.453Z,28.10
2022-12-03T15:17:10.205Z,28.20
2022-12-03T15:19:37.933Z,27.10
2022-12-03T15:22:05.714Z,21.17
2022-12-03T15:24:36.217Z,21.10
2022-12-03T15:27:04.316Z,21.80
2022-12-03T15:29:33.044Z,22.67
2022-12-03T15:32:03.165Z,22.40
2022-12-03T15:34:31.368Z,22.70
2022-12-03T15:36:59.856Z,23.37
2022-12-03T15:39:30.490Z,24.33
2022-12-03T15:41:59.881Z,25.30
2022-12-03T15:44:29.815Z,23.67
2022-12-03T15:46:58.541Z,24.03
2022-12-03T15:49:26.417Z,22.60
2022-12-03T15:51:55.444Z,22.50
2022-12-03T15:54:24.004Z,25.77
2022-12-03T15:56:57.234Z,23.63
2022-12-03T15:59:27.382Z,26.20
2022-12-03T16:01:58.752Z,26.53
2022-12-03T16:04:27.347Z,24.10
2022-12-03T16:06:59.692Z,22.43
2022-12-03T16:09:30.370Z,26.00
2022-12-03T16:11:58.151Z,27.63
2022-12-03T16:14:27.262Z,24.80
2022-12-03T16:16:55.234Z,25.67
2022-12-03T16:19:24.271Z,23.30
2022-12-03T16:21:55.406Z,24.13
2022-12-03T16:24:23.289Z,26.37
2022-12-03T16:26:51.261Z,27.90
2022-12-03T16:29:19.083Z,25.47
2022-12-03T16:31:48.448Z,23.03
2022-12-03T16:34:16.299Z,26.20
2022-12-03T16:36:45.729Z,26.70
2022-12-03T16:39:13.777Z,23.53
2022-12-03T16:41:41.551Z,23.47
2022-12-03T16:44:09.894Z,25.80
2022-12-03T16:46:37.862Z,23.30
2022-12-03T16:49:07.921Z,23.90
2022-12-03T16:51:37.795Z,17.37
2022-12-03T16:54:05.803Z,18.47
2022-12-03T16:56:33.503Z,24.40
2022-12-03T16:59:01.322Z,22.47
2022-12-03T17:01:29.231Z,25.33
2022-12-03T17:03:57.100Z,23.07
2022-12-03T17:06:26.437Z,25.90
2022-12-03T17:08:55.043Z,27.00
2022-12-03T17:11:22.825Z,28.97
2022-12-03T17:13:50.560Z,25.43
2022-12-03T17:16:18.496Z,25.03
2022-12-03T17:18:46.292Z,29.93
2022-12-03T17:21:13.983Z,26.30
2022-12-03T17:23:44.660Z,26.30
2022-12-03T17:26:13.212Z,26.23
2022-12-03T17:28:41.964Z,27.83
2022-12-03T17:31:09.834Z,26.17
2022-12-03T17:33:37.668Z,27.73
2022-12-03T17:36:05.969Z,28.40
2022-12-03T17:38:38.877Z,25.57
2022-12-03T17:41:08.373Z,30.10
2022-12-03T17:43:36.174Z,27.77
2022-12-03T17:46:05.122Z,30.60
2022-12-03T17:48:33.028Z,25.83
2022-12-03T17:51:01.536Z,26.87
2022-12-03T17:53:29.188Z,28.40
2022-12-03T17:55:56.862Z,27.97
2022-12-03T17:58:35.176Z,40.20
2022-12-03T18:01:03.450Z,32.47
2022-12-03T18:03:31.490Z,26.60
2022-12-03T18:05:59.513Z,25.23
2022-12-03T18:08:27.279Z,26.10
2022-12-03T18:10:54.957Z,21.40
2022-12-03T18:13:22.982Z,81.80
2022-12-03T18:15:52.078Z,46.30
2022-12-03T18:18:19.886Z,24.97
2022-12-03T18:20:47.589Z,31.03
2022-12-03T18:23:15.396Z,26.80
2022-12-03T18:25:43.084Z,24.17
2022-12-03T18:28:10.671Z,25.40
2022-12-03T18:30:38.428Z,27.97
2022-12-03T18:33:07.435Z,24.37
2022-12-03T18:35:35.164Z,24.93
2022-12-03T18:38:02.859Z,25.40
2022-12-03T18:40:30.619Z,24.83
2022-12-03T18:42:58.411Z,24.33
2022-12-03T18:45:26.181Z,28.00
2022-12-03T18:47:54.674Z,22.47
2022-12-03T18:50:23.828Z,24.93
2022-12-03T18:52:51.528Z,24.33
2022-12-03T18:55:51.592Z,24.20
2022-12-03T18:58:19.264Z,26.83
2022-12-03T19:00:47.162Z,23.43
2022-12-03T19:03:14.932Z,26.57
2022-12-03T19:05:44.009Z,24.00
2022-12-03T19:08:14.916Z,25.00
2022-12-03T19:10:42.981Z,26.70
2022-12-03T19:13:10.721Z,26.93
2022-12-03T19:15:38.393Z,24.23
2022-12-03T19:18:07.327Z,26.80
2022-12-03T19:20:35.478Z,24.57
2022-12-03T19:23:04.679Z,25.40
2022-12-03T19:25:32.481Z,24.43
2022-12-03T19:28:00.103Z,24.73
2022-12-03T19:30:27.890Z,25.80
2022-12-03T19:32:55.508Z,24.30
2022-12-03T19:35:24.222Z,26.47
2022-12-03T19:37:51.974Z,21.97
2022-12-03T19:40:22.991Z,24.20
2022-12-03T19:42:50.625Z,25.47
2022-12-03T19:45:19.246Z,27.27
2022-12-03T19:47:47.842Z,25.57
2022-12-03T19:50:22.534Z,25.93
2022-12-03T19:52:51.699Z,26.77
2022-12-03T19:55:21.488Z,44.63
2022-12-03T19:57:51.731Z,23.67
2022-12-03T20:00:20.446Z,26.97
2022-12-03T20:02:50.151Z,26.33
2022-12-03T20:05:18.937Z,27.07
2022-12-03T20:07:47.286Z,25.10
2022-12-03T20:10:15.938Z,25.00
2022-12-03T20:12:44.433Z,22.87
2022-12-03T20:15:14.616Z,26.87
2022-12-03T20:17:43.126Z,24.57
2022-12-03T20:20:12.049Z,41.47
2022-12-03T20:22:40.624Z,31.83
2022-12-03T20:25:09.485Z,23.93
2022-12-03T20:27:37.628Z,24.83
2022-12-03T20:30:08.962Z,25.40
2022-12-03T20:32:42.141Z,26.73
2022-12-03T20:35:13.175Z,25.63
2022-12-03T20:37:41.197Z,24.33
2022-12-03T20:40:11.349Z,28.57
2022-12-03T20:42:40.172Z,28.47
2022-12-03T20:45:09.475Z,25.90
2022-12-03T20:47:39.484Z,26.97
2022-12-03T20:50:08.775Z,25.27
2022-12-03T20:52:37.083Z,27.70
2022-12-03T20:55:07.182Z,26.80
2022-12-03T20:57:38.078Z,29.53
2022-12-03T21:00:09.682Z,24.83
2022-12-03T21:02:40.680Z,31.40
2022-12-03T21:05:13.144Z,28.17
2022-12-03T21:07:41.409Z,25.10
2022-12-03T21:10:31.604Z,26.53
2022-12-03T21:13:01.897Z,29.03
2022-12-03T21:15:30.655Z,26.77
2022-12-03T21:18:01.095Z,28.60
2022-12-03T21:20:29.932Z,29.33
2022-12-03T21:22:58.095Z,26.00
2022-12-03T21:25:26.567Z,26.83
2022-12-03T21:27:54.990Z,27.87
2022-12-03T21:30:22.938Z,30.07
2022-12-03T21:32:50.743Z,28.43
2022-12-03T21:35:20.012Z,25.30
2022-12-03T21:37:47.838Z,62.47
2022-12-03T21:40:16.037Z,27.93
2022-12-03T21:42:44.778Z,29.03
2022-12-03T21:45:12.529Z,24.93
2022-12-03T21:47:42.297Z,22.90
2022-12-03T21:50:11.066Z,27.10
2022-12-03T21:52:41.579Z,27.33
2022-12-03T21:55:10.299Z,25.37
2022-12-03T21:57:38.054Z,25.13
2022-12-03T22:00:07.580Z,26.30
2022-12-03T22:02:36.603Z,26.13
2022-12-03T22:05:04.681Z,28.93
2022-12-03T22:07:33.737Z,30.60
2022-12-03T22:10:02.853Z,28.43
2022-12-03T22:12:30.531Z,28.73
2022-12-03T22:14:59.291Z,29.70
2022-12-03T22:17:27.164Z,28.70
2022-12-03T22:19:55.118Z,26.77
2022-12-03T22:22:23.256Z,26.27
2022-12-03T22:24:52.251Z,28.73
2022-12-03T22:27:21.386Z,24.80
2022-12-03T22:29:49.014Z,27.47
2022-12-03T22:32:16.755Z,28.00
2022-12-03T22:34:44.370Z,26.30
2022-12-03T22:37:12.078Z,26.30
2022-12-03T22:39:39.771Z,26.20
2022-12-03T22:42:07.836Z,25.50
2022-12-03T22:44:36.871Z,26.67
2022-12-03T22:47:05.143Z,26.03
2022-12-03T22:49:32.841Z,24.90
2022-12-03T22:52:00.593Z,29.37
2022-12-03T22:54:28.513Z,25.80
2022-12-03T22:56:56.172Z,23.17
2022-12-03T22:59:23.887Z,25.57
2022-12-03T23:01:52.834Z,24.40
2022-12-03T23:04:20.594Z,28.13
2022-12-03T23:06:48.327Z,25.20
2022-12-03T23:09:16.123Z,25.90
2022-12-03T23:11:44.209Z,27.77
2022-12-03T23:14:11.946Z,28.43
2022-12-03T23:16:40.420Z,28.23
2022-12-03T23:19:09.601Z,29.57
2022-12-03T23:21:37.232Z,29.20
2022-12-03T23:24:05.503Z,27.33
2022-12-03T23:26:35.170Z,24.17
2022-12-03T23:29:02.827Z,32.23
2022-12-03T23:31:46.761Z,31.67
2022-12-03T23:34:15.880Z,31.23
2022-12-03T23:36:43.696Z,28.63
2022-12-03T23:39:11.384Z,29.13
2022-12-03T23:41:39.224Z,28.70
2022-12-03T23:44:10.005Z,30.23
2022-12-03T23:46:39.879Z,27.70
2022-12-03T23:49:07.789Z,28.30
2022-12-03T23:51:36.980Z,27.03
2022-12-03T23:54:04.726Z,28.40
2022-12-03T23:56:32.611Z,28.40
2022-12-03T23:59:00.274Z,29.43
